createdAt,value
2019-03-21T00:00:26.250Z,11.45
2019-03-21T00:01:26.259Z,11.41
2019-03-21T00:02:26.282Z,11.37
2019-03-21T00:03:26.291Z,11.40
2019-03-21T00:04:26.314Z,11.33
2019-03-21T00:05:26.338Z,11.33
2019-03-21T00:06:26.347Z,11.37
2019-03-21T00:07:26.365Z,11.47
2019-03-21T00:08:26.385Z,11.47
2019-03-21T00:09:26.403Z,11.47
2019-03-21T00:10:26.423Z,11.41
2019-03-21T00:11:26.438Z,11.44
2019-03-21T00:12:26.456Z,11.41
2019-03-21T00:13:26.476Z,11.43
2019-03-21T00:14:26.500Z,11.41
2019-03-21T00:15:26.510Z,11.43
2019-03-21T00:16:26.533Z,11.29
2019-03-21T00:17:26.552Z,11.35
2019-03-21T00:18:26.563Z,11.30
2019-03-21T00:19:26.589Z,11.30
2019-03-21T00:20:26.605Z,11.37
2019-03-21T00:21:26.621Z,11.35
2019-03-21T00:22:26.639Z,11.30
2019-03-21T00:23:26.656Z,11.33
2019-03-21T00:24:26.675Z,11.29
2019-03-21T00:25:26.693Z,11.33
2019-03-21T00:26:26.713Z,11.18
2019-03-21T00:27:26.726Z,11.25
2019-03-21T00:28:26.750Z,11.29
2019-03-21T00:29:26.770Z,11.25
2019-03-21T00:30:26.780Z,11.29
2019-03-21T00:31:26.800Z,11.22
2019-03-21T00:32:26.816Z,11.30
2019-03-21T00:33:26.836Z,11.32
2019-03-21T00:34:26.861Z,11.18
2019-03-21T00:35:26.869Z,11.18
2019-03-21T00:36:26.890Z,11.27
2019-03-21T00:37:26.910Z,11.25
2019-03-21T00:38:26.924Z,11.22
2019-03-21T00:39:32.714Z,11.33
2019-03-21T00:40:26.968Z,11.26
2019-03-21T00:41:26.980Z,11.25
2019-03-21T00:42:26.998Z,11.29
2019-03-21T00:43:27.013Z,11.19
2019-03-21T00:44:27.035Z,11.19
2019-03-21T00:45:27.050Z,11.29
2019-03-21T00:46:27.070Z,11.29
2019-03-21T00:47:27.089Z,11.29
2019-03-21T00:48:27.103Z,11.30
2019-03-21T00:49:27.124Z,11.23
2019-03-21T00:50:27.143Z,11.19
2019-03-21T00:51:27.165Z,11.11
2019-03-21T00:52:27.178Z,11.14
2019-03-21T00:53:27.196Z,11.18
2019-03-21T00:54:27.212Z,11.18
2019-03-21T00:55:27.230Z,11.14
2019-03-21T00:56:27.257Z,11.19
2019-03-21T00:57:27.269Z,11.22
2019-03-21T00:58:27.286Z,11.14
2019-03-21T00:59:27.302Z,11.18
2019-03-21T01:00:27.327Z,11.17
2019-03-21T01:01:27.336Z,11.19
2019-03-21T01:02:27.363Z,11.22
2019-03-21T01:03:27.377Z,11.18
2019-03-21T01:04:27.394Z,11.22
2019-03-21T01:05:27.411Z,11.25
2019-03-21T01:06:27.428Z,11.26
2019-03-21T01:07:27.450Z,11.22
2019-03-21T01:08:27.462Z,11.19
2019-03-21T01:09:27.489Z,11.25
2019-03-21T01:10:27.500Z,11.30
2019-03-21T01:11:27.522Z,11.33
2019-03-21T01:12:27.538Z,11.23
2019-03-21T01:13:27.559Z,11.25
2019-03-21T01:14:30.035Z,11.23
2019-03-21T01:15:27.594Z,11.18
2019-03-21T01:16:27.607Z,11.12
2019-03-21T01:17:27.624Z,11.05
2019-03-21T01:18:27.643Z,11.07
2019-03-21T01:19:27.660Z,11.07
2019-03-21T01:20:27.681Z,11.07
2019-03-21T01:21:27.699Z,11.11
2019-03-21T01:22:27.723Z,11.15
2019-03-21T01:23:28.082Z,11.15
2019-03-21T01:24:27.751Z,11.08
2019-03-21T01:25:27.769Z,11.10
2019-03-21T01:26:27.788Z,11.08
2019-03-21T01:27:27.806Z,11.08
2019-03-21T01:28:27.835Z,11.10
2019-03-21T01:29:27.840Z,11.15
2019-03-21T01:30:27.861Z,11.10
2019-03-21T01:31:27.876Z,11.23
2019-03-21T01:32:27.895Z,11.17
2019-03-21T01:33:27.911Z,11.15
2019-03-21T01:34:27.933Z,11.17
2019-03-21T01:35:27.948Z,11.12
2019-03-21T01:36:27.967Z,11.05
2019-03-21T01:37:27.988Z,11.10
2019-03-21T01:38:28.002Z,10.99
2019-03-21T01:39:28.019Z,11.00
2019-03-21T01:40:28.039Z,11.05
2019-03-21T01:41:28.054Z,11.05
2019-03-21T01:42:28.072Z,11.05
2019-03-21T01:43:28.097Z,11.12
2019-03-21T01:44:28.110Z,11.15
2019-03-21T01:45:28.125Z,11.10
2019-03-21T01:46:28.144Z,11.04
2019-03-21T01:47:28.163Z,11.23
2019-03-21T01:48:28.188Z,11.08
2019-03-21T01:49:28.199Z,11.17
2019-03-21T01:50:28.217Z,11.14
2019-03-21T01:51:28.234Z,11.15
2019-03-21T01:52:28.256Z,11.18
2019-03-21T01:53:28.271Z,11.15
2019-03-21T01:54:28.287Z,11.23
2019-03-21T01:55:28.310Z,11.15
2019-03-21T01:56:28.331Z,11.18
2019-03-21T01:57:28.340Z,11.14
2019-03-21T01:58:28.358Z,11.15
2019-03-21T01:59:28.382Z,11.14
2019-03-21T02:00:28.394Z,11.14
2019-03-21T02:01:28.420Z,11.11
2019-03-21T02:02:28.430Z,11.10
2019-03-21T02:03:28.453Z,11.08
2019-03-21T02:04:28.465Z,11.10
2019-03-21T02:05:28.491Z,10.99
2019-03-21T02:06:28.501Z,10.97
2019-03-21T02:07:28.523Z,11.04
2019-03-21T02:08:28.539Z,11.00
2019-03-21T02:09:28.559Z,10.87
2019-03-21T02:10:28.577Z,10.94
2019-03-21T02:11:28.591Z,11.00
2019-03-21T02:12:28.610Z,10.90
2019-03-21T02:13:28.630Z,10.93
2019-03-21T02:14:28.648Z,10.94
2019-03-21T02:15:28.670Z,11.00
2019-03-21T02:16:28.680Z,10.92
2019-03-21T02:17:28.700Z,10.90
2019-03-21T02:18:28.720Z,10.94
2019-03-21T02:19:28.741Z,10.96
2019-03-21T02:20:28.752Z,10.92
2019-03-21T02:21:28.771Z,10.86
2019-03-21T02:22:28.789Z,10.90
2019-03-21T02:23:28.808Z,10.90
2019-03-21T02:24:28.822Z,10.87
2019-03-21T02:25:28.840Z,10.97
2019-03-21T02:26:28.867Z,10.93
2019-03-21T02:27:28.878Z,10.92
2019-03-21T02:28:28.896Z,10.89
2019-03-21T02:29:28.918Z,10.87
2019-03-21T02:30:28.930Z,10.86
2019-03-21T02:31:28.953Z,10.87
2019-03-21T02:32:28.966Z,10.89
2019-03-21T02:33:28.987Z,10.89
2019-03-21T02:34:29.004Z,10.89
2019-03-21T02:35:31.056Z,10.79
2019-03-21T02:36:29.036Z,10.84
2019-03-21T02:37:29.057Z,10.79
2019-03-21T02:38:29.075Z,10.87
2019-03-21T02:39:29.098Z,10.87
2019-03-21T02:40:29.109Z,10.81
2019-03-21T02:41:29.137Z,10.81
2019-03-21T02:42:29.147Z,10.78
2019-03-21T02:43:29.163Z,10.72
2019-03-21T02:44:30.248Z,10.75
2019-03-21T02:45:29.199Z,10.78
2019-03-21T02:46:29.218Z,10.75
2019-03-21T02:47:29.233Z,10.69
2019-03-21T02:48:29.261Z,10.84
2019-03-21T02:49:29.271Z,10.76
2019-03-21T02:50:29.288Z,10.81
2019-03-21T02:51:29.304Z,10.75
2019-03-21T02:52:29.324Z,10.75
2019-03-21T02:53:29.340Z,10.72
2019-03-21T02:54:29.360Z,10.76
2019-03-21T02:55:29.374Z,10.69
2019-03-21T02:56:29.398Z,10.71
2019-03-21T02:57:29.410Z,10.72
2019-03-21T02:58:29.446Z,10.76
2019-03-21T02:59:29.465Z,10.72
2019-03-21T03:00:29.464Z,10.71
2019-03-21T03:01:29.489Z,10.60
2019-03-21T03:02:29.502Z,10.79
2019-03-21T03:03:29.520Z,10.72
2019-03-21T03:04:29.536Z,10.67
2019-03-21T03:05:29.557Z,10.75
2019-03-21T03:06:29.584Z,10.61
2019-03-21T03:07:29.586Z,10.68
2019-03-21T03:08:29.613Z,10.67
2019-03-21T03:09:29.624Z,10.75
2019-03-21T03:10:29.647Z,10.79
2019-03-21T03:11:29.658Z,10.69
2019-03-21T03:12:29.679Z,10.79
2019-03-21T03:13:29.703Z,10.76
2019-03-21T03:14:29.713Z,10.74
2019-03-21T03:15:29.733Z,10.71
2019-03-21T03:16:29.754Z,10.68
2019-03-21T03:17:29.775Z,10.69
2019-03-21T03:18:29.783Z,10.72
2019-03-21T03:19:29.802Z,10.74
2019-03-21T03:20:29.825Z,10.64
2019-03-21T03:21:29.837Z,10.69
2019-03-21T03:22:30.017Z,10.64
2019-03-21T03:23:29.871Z,10.72
2019-03-21T03:24:29.898Z,10.74
2019-03-21T03:25:29.910Z,10.76
2019-03-21T03:26:29.927Z,10.79
2019-03-21T03:27:29.946Z,10.76
2019-03-21T03:28:29.959Z,10.71
2019-03-21T03:29:29.976Z,10.81
2019-03-21T03:30:29.995Z,10.84
2019-03-21T03:31:30.034Z,10.79
2019-03-21T03:32:30.031Z,10.76
2019-03-21T03:33:30.062Z,10.72
2019-03-21T03:34:30.072Z,10.79
2019-03-21T03:35:30.085Z,10.79
2019-03-21T03:36:30.105Z,10.79
2019-03-21T03:37:30.127Z,10.74
2019-03-21T03:38:30.144Z,10.81
2019-03-21T03:39:30.156Z,10.75
2019-03-21T03:40:30.177Z,10.76
2019-03-21T03:41:30.201Z,10.81
2019-03-21T03:42:30.211Z,10.82
2019-03-21T03:43:30.231Z,10.84
2019-03-21T03:44:30.246Z,10.86
2019-03-21T03:45:37.363Z,10.89
2019-03-21T03:46:30.282Z,10.84
2019-03-21T03:47:30.300Z,10.86
2019-03-21T03:48:30.321Z,10.72
2019-03-21T03:49:30.342Z,10.74
2019-03-21T03:50:30.355Z,10.75
2019-03-21T03:51:30.377Z,10.78
2019-03-21T03:52:30.396Z,10.71
2019-03-21T03:53:30.414Z,10.74
2019-03-21T03:54:30.673Z,10.75
2019-03-21T03:55:30.449Z,10.72
2019-03-21T03:56:30.456Z,10.71
2019-03-21T03:57:30.478Z,10.69
2019-03-21T03:58:30.497Z,10.78
2019-03-21T03:59:30.513Z,10.72
2019-03-21T04:00:30.534Z,10.71
2019-03-21T04:01:30.546Z,10.61
2019-03-21T04:02:30.564Z,10.64
2019-03-21T04:03:30.587Z,10.63
2019-03-21T04:04:30.600Z,10.69
2019-03-21T04:05:30.619Z,10.61
2019-03-21T04:06:30.643Z,10.61
2019-03-21T04:07:30.655Z,10.60
2019-03-21T04:08:30.670Z,10.59
2019-03-21T04:09:30.695Z,10.63
2019-03-21T04:10:30.710Z,10.71
2019-03-21T04:11:30.725Z,10.60
2019-03-21T04:12:30.743Z,10.67
2019-03-21T04:13:30.758Z,10.63
2019-03-21T04:14:30.778Z,10.63
2019-03-21T04:15:30.799Z,10.59
2019-03-21T04:16:30.817Z,10.51
2019-03-21T04:17:30.835Z,10.63
2019-03-21T04:18:30.853Z,10.59
2019-03-21T04:19:30.866Z,10.63
2019-03-21T04:20:30.883Z,10.61
2019-03-21T04:21:30.903Z,10.67
2019-03-21T04:22:30.921Z,10.63
2019-03-21T04:23:30.936Z,10.56
2019-03-21T04:24:30.955Z,10.60
2019-03-21T04:25:30.974Z,10.60
2019-03-21T04:26:31.005Z,10.59
2019-03-21T04:27:31.006Z,10.59
2019-03-21T04:28:31.027Z,10.64
2019-03-21T04:29:31.044Z,10.59
2019-03-21T04:30:31.059Z,10.61
2019-03-21T04:31:31.079Z,10.59
2019-03-21T04:32:31.109Z,10.57
2019-03-21T04:33:31.113Z,10.64
2019-03-21T04:34:31.386Z,10.60
2019-03-21T04:35:31.151Z,10.51
2019-03-21T04:36:31.166Z,10.49
2019-03-21T04:37:31.186Z,10.51
2019-03-21T04:38:31.207Z,10.57
2019-03-21T04:39:31.219Z,10.53
2019-03-21T04:40:31.236Z,10.54
2019-03-21T04:41:31.277Z,10.57
2019-03-21T04:42:31.274Z,10.56
2019-03-21T04:43:31.289Z,10.56
2019-03-21T04:44:31.309Z,10.59
2019-03-21T04:45:31.328Z,10.63
2019-03-21T04:46:31.341Z,10.63
2019-03-21T04:47:31.361Z,10.74
2019-03-21T04:48:31.385Z,10.72
2019-03-21T04:49:31.402Z,10.67
2019-03-21T04:50:31.415Z,10.63
2019-03-21T04:51:31.435Z,10.69
2019-03-21T04:52:31.448Z,10.64
2019-03-21T04:53:31.465Z,10.59
2019-03-21T04:54:31.483Z,10.60
2019-03-21T04:55:31.501Z,10.59
2019-03-21T04:56:31.518Z,10.61
2019-03-21T04:57:31.539Z,10.56
2019-03-21T04:58:31.557Z,10.42
2019-03-21T04:59:31.572Z,10.41
2019-03-21T05:00:31.588Z,10.42
2019-03-21T05:01:31.607Z,10.51
2019-03-21T05:02:31.628Z,10.57
2019-03-21T05:03:31.643Z,10.53
2019-03-21T05:04:31.659Z,10.54
2019-03-21T05:05:31.681Z,10.54
2019-03-21T05:06:32.918Z,10.46
2019-03-21T05:07:31.721Z,10.40
2019-03-21T05:08:31.734Z,10.40
2019-03-21T05:09:31.747Z,10.31
2019-03-21T05:10:31.764Z,10.38
2019-03-21T05:11:31.781Z,10.42
2019-03-21T05:12:31.799Z,10.31
2019-03-21T05:13:31.820Z,10.31
2019-03-21T05:14:31.837Z,10.34
2019-03-21T05:15:31.853Z,10.40
2019-03-21T05:16:31.869Z,10.28
2019-03-21T05:17:31.890Z,10.44
2019-03-21T05:18:31.906Z,10.31
2019-03-21T05:19:31.931Z,10.34
2019-03-21T05:20:31.940Z,10.31
2019-03-21T05:21:31.963Z,10.37
2019-03-21T05:22:31.983Z,10.33
2019-03-21T05:23:31.990Z,10.42
2019-03-21T05:24:32.018Z,10.23
2019-03-21T05:25:32.025Z,10.33
2019-03-21T05:26:32.047Z,10.33
2019-03-21T05:27:32.069Z,10.33
2019-03-21T05:28:32.082Z,10.31
2019-03-21T05:29:32.103Z,10.31
2019-03-21T05:30:32.117Z,10.25
2019-03-21T05:31:32.131Z,10.25
2019-03-21T05:32:32.153Z,10.23
2019-03-21T05:33:32.170Z,10.34
2019-03-21T05:34:32.188Z,10.28
2019-03-21T05:35:32.202Z,10.33
2019-03-21T05:36:32.217Z,10.19
2019-03-21T05:37:32.238Z,10.30
2019-03-21T05:38:32.255Z,10.30
2019-03-21T05:39:32.286Z,10.30
2019-03-21T05:40:32.286Z,10.33
2019-03-21T05:41:32.311Z,10.30
2019-03-21T05:42:32.323Z,10.31
2019-03-21T05:43:32.341Z,10.30
2019-03-21T05:44:32.607Z,10.22
2019-03-21T05:45:32.381Z,10.20
2019-03-21T05:46:32.392Z,10.31
2019-03-21T05:47:32.408Z,10.22
2019-03-21T05:48:32.428Z,10.16
2019-03-21T05:49:32.446Z,10.23
2019-03-21T05:50:32.465Z,10.30
2019-03-21T05:51:32.495Z,10.25
2019-03-21T05:52:32.504Z,10.30
2019-03-21T05:53:32.524Z,10.33
2019-03-21T05:54:32.534Z,10.34
2019-03-21T05:55:32.548Z,10.35
2019-03-21T05:56:32.571Z,10.34
2019-03-21T05:57:32.596Z,10.44
2019-03-21T05:58:32.609Z,10.30
2019-03-21T05:59:32.620Z,10.28
2019-03-21T06:00:32.635Z,10.23
2019-03-21T06:01:32.655Z,10.26
2019-03-21T06:02:32.679Z,10.23
2019-03-21T06:03:32.689Z,10.23
2019-03-21T06:04:32.707Z,10.22
2019-03-21T06:05:32.728Z,10.23
2019-03-21T06:06:32.741Z,10.23
2019-03-21T06:07:32.758Z,10.33
2019-03-21T06:08:32.777Z,10.26
2019-03-21T06:09:32.795Z,10.33
2019-03-21T06:10:32.811Z,10.30
2019-03-21T06:11:32.828Z,10.38
2019-03-21T06:12:32.849Z,10.41
2019-03-21T06:13:32.865Z,10.37
2019-03-21T06:14:32.879Z,10.28
2019-03-21T06:15:32.898Z,10.30
2019-03-21T06:16:37.571Z,10.26
2019-03-21T06:17:32.931Z,10.22
2019-03-21T06:18:32.948Z,10.35
2019-03-21T06:19:32.970Z,10.25
2019-03-21T06:20:32.983Z,10.23
2019-03-21T06:21:33.002Z,10.17
2019-03-21T06:22:33.018Z,10.26
2019-03-21T06:23:33.034Z,10.20
2019-03-21T06:24:33.054Z,10.28
2019-03-21T06:25:33.078Z,10.23
2019-03-21T06:26:33.092Z,10.26
2019-03-21T06:27:33.104Z,10.23
2019-03-21T06:28:33.124Z,10.22
2019-03-21T06:29:33.141Z,10.31
2019-03-21T06:30:33.161Z,10.31
2019-03-21T06:31:33.176Z,10.37
2019-03-21T06:32:33.191Z,10.31
2019-03-21T06:33:33.210Z,10.31
2019-03-21T06:34:33.225Z,10.34
2019-03-21T06:35:33.243Z,10.31
2019-03-21T06:36:33.260Z,10.26
2019-03-21T06:37:33.285Z,10.22
2019-03-21T06:38:33.295Z,10.17
2019-03-21T06:39:33.316Z,10.31
2019-03-21T06:40:33.339Z,10.31
2019-03-21T06:41:33.350Z,10.34
2019-03-21T06:42:33.365Z,10.40
2019-03-21T06:43:33.385Z,10.26
2019-03-21T06:44:33.402Z,10.42
2019-03-21T06:45:33.417Z,10.41
2019-03-21T06:46:33.437Z,10.40
2019-03-21T06:47:33.452Z,10.41
2019-03-21T06:48:33.472Z,10.49
2019-03-21T06:49:33.488Z,10.48
2019-03-21T06:50:33.511Z,10.60
2019-03-21T06:51:33.523Z,10.59
2019-03-21T06:52:33.541Z,10.63
2019-03-21T06:53:33.558Z,10.61
2019-03-21T06:54:33.580Z,10.61
2019-03-21T06:55:33.595Z,10.61
2019-03-21T06:56:33.611Z,10.69
2019-03-21T06:57:33.629Z,10.74
2019-03-21T06:58:33.650Z,10.75
2019-03-21T06:59:33.665Z,10.72
2019-03-21T07:00:33.682Z,10.75
2019-03-21T07:01:33.699Z,10.74
2019-03-21T07:02:33.719Z,10.69
2019-03-21T07:03:33.735Z,10.74
2019-03-21T07:04:33.752Z,10.74
2019-03-21T07:05:33.776Z,10.68
2019-03-21T07:06:33.793Z,10.72
2019-03-21T07:07:33.807Z,10.78
2019-03-21T07:08:33.831Z,10.69
2019-03-21T07:09:33.844Z,10.78
2019-03-21T07:10:33.862Z,10.75
2019-03-21T07:11:33.878Z,10.81
2019-03-21T07:12:33.901Z,10.75
2019-03-21T07:13:33.915Z,10.71
2019-03-21T07:14:33.935Z,10.79
2019-03-21T07:15:33.947Z,10.81
2019-03-21T07:16:34.117Z,10.78
2019-03-21T07:17:33.985Z,10.86
2019-03-21T07:18:34.085Z,10.78
2019-03-21T07:19:34.020Z,10.69
2019-03-21T07:20:34.038Z,10.75
2019-03-21T07:21:34.056Z,10.76
2019-03-21T07:22:34.082Z,10.81
2019-03-21T07:23:34.297Z,10.82
2019-03-21T07:24:34.108Z,10.90
2019-03-21T07:25:34.134Z,10.86
2019-03-21T07:26:34.146Z,10.93
2019-03-21T07:27:34.159Z,10.89
2019-03-21T07:28:34.178Z,10.93
2019-03-21T07:29:34.197Z,10.96
2019-03-21T07:30:34.217Z,11.00
2019-03-21T07:31:34.231Z,10.99
2019-03-21T07:32:34.252Z,11.04
2019-03-21T07:33:34.267Z,11.02
2019-03-21T07:34:34.289Z,10.99
2019-03-21T07:35:34.309Z,10.99
2019-03-21T07:36:34.475Z,10.97
2019-03-21T07:37:34.341Z,10.94
2019-03-21T07:38:34.360Z,11.05
2019-03-21T07:39:34.378Z,10.96
2019-03-21T07:40:34.395Z,11.04
2019-03-21T07:41:34.437Z,11.10
2019-03-21T07:42:34.431Z,11.05
2019-03-21T07:43:34.446Z,11.05
2019-03-21T07:44:34.467Z,11.08
2019-03-21T07:45:34.490Z,11.18
2019-03-21T07:46:34.523Z,11.23
2019-03-21T07:47:34.568Z,11.27
2019-03-21T07:48:34.539Z,11.26
2019-03-21T07:49:34.568Z,11.23
2019-03-21T07:50:34.573Z,11.22
2019-03-21T07:51:34.600Z,11.25
2019-03-21T07:52:34.620Z,11.18
2019-03-21T07:53:34.626Z,11.29
2019-03-21T07:54:34.645Z,11.33
2019-03-21T07:55:34.671Z,11.32
2019-03-21T07:56:34.682Z,11.35
2019-03-21T07:57:34.723Z,11.47
2019-03-21T07:58:34.717Z,11.44
2019-03-21T07:59:34.736Z,11.40
2019-03-21T08:00:34.760Z,11.50
2019-03-21T08:01:34.773Z,11.50
2019-03-21T08:02:34.788Z,11.43
2019-03-21T08:03:34.811Z,11.47
2019-03-21T08:04:34.828Z,11.52
2019-03-21T08:05:40.170Z,11.57
2019-03-21T08:06:34.866Z,11.59
2019-03-21T08:07:34.880Z,11.69
2019-03-21T08:08:34.901Z,11.70
2019-03-21T08:09:34.949Z,11.73
2019-03-21T08:10:34.935Z,11.81
2019-03-21T08:11:34.951Z,11.73
2019-03-21T08:12:34.969Z,11.81
2019-03-21T08:13:34.988Z,11.94
2019-03-21T08:14:35.011Z,11.99
2019-03-21T08:15:37.663Z,12.04
2019-03-21T08:16:35.042Z,11.97
2019-03-21T08:17:35.060Z,11.97
2019-03-21T08:18:35.113Z,11.95
2019-03-21T08:19:35.103Z,11.95
2019-03-21T08:20:35.117Z,12.04
2019-03-21T08:21:35.233Z,12.09
2019-03-21T08:22:35.152Z,12.10
2019-03-21T08:23:35.170Z,12.12
2019-03-21T08:24:35.196Z,12.06
2019-03-21T08:25:35.210Z,12.02
2019-03-21T08:26:35.225Z,12.10
2019-03-21T08:27:35.244Z,12.12
2019-03-21T08:28:35.262Z,12.12
2019-03-21T08:29:35.290Z,12.07
2019-03-21T08:30:35.299Z,12.18
2019-03-21T08:31:35.319Z,12.21
2019-03-21T08:32:35.338Z,12.25
2019-03-21T08:33:35.356Z,12.28
2019-03-21T08:34:35.373Z,12.29
2019-03-21T08:35:35.395Z,12.29
2019-03-21T08:36:35.414Z,12.29
2019-03-21T08:37:35.428Z,12.42
2019-03-21T08:38:35.451Z,12.43
2019-03-21T08:39:35.465Z,12.35
2019-03-21T08:40:35.484Z,12.47
2019-03-21T08:41:35.504Z,12.54
2019-03-21T08:42:35.522Z,12.65
2019-03-21T08:43:35.542Z,12.67
2019-03-21T08:44:35.560Z,12.65
2019-03-21T08:45:35.585Z,12.72
2019-03-21T08:46:35.597Z,12.73
2019-03-21T08:47:37.040Z,12.75
2019-03-21T08:48:36.004Z,12.85
2019-03-21T08:49:35.654Z,12.85
2019-03-21T08:50:35.711Z,12.86
2019-03-21T08:51:35.695Z,12.91
2019-03-21T08:52:35.711Z,12.90
2019-03-21T08:53:35.734Z,13.09
2019-03-21T08:54:35.952Z,13.15
2019-03-21T08:55:36.265Z,13.03
2019-03-21T08:56:35.784Z,13.13
2019-03-21T08:57:35.804Z,13.12
2019-03-21T08:58:35.930Z,13.13
2019-03-21T08:59:35.840Z,13.15
2019-03-21T09:00:35.865Z,13.25
2019-03-21T09:01:35.878Z,13.30
2019-03-21T09:02:35.908Z,13.35
2019-03-21T09:03:35.920Z,13.46
2019-03-21T09:04:35.936Z,13.37
2019-03-21T09:05:36.057Z,13.39
2019-03-21T09:06:35.975Z,13.47
2019-03-21T09:07:36.001Z,13.49
2019-03-21T09:08:36.016Z,13.57
2019-03-21T09:09:36.031Z,13.62
2019-03-21T09:10:36.060Z,13.60
2019-03-21T09:11:36.072Z,13.56
2019-03-21T09:12:36.091Z,13.60
2019-03-21T09:13:36.108Z,13.62
2019-03-21T09:14:36.134Z,13.65
2019-03-21T09:15:36.150Z,13.68
2019-03-21T09:16:36.166Z,13.60
2019-03-21T09:17:36.193Z,13.65
2019-03-21T09:18:36.211Z,13.68
2019-03-21T09:19:36.227Z,13.78
2019-03-21T09:20:36.403Z,13.85
2019-03-21T09:21:36.263Z,13.92
2019-03-21T09:22:36.285Z,13.87
2019-03-21T09:23:36.314Z,13.95
2019-03-21T09:24:36.321Z,13.78
2019-03-21T09:25:36.951Z,13.77
2019-03-21T09:26:36.363Z,13.86
2019-03-21T09:27:36.381Z,13.93
2019-03-21T09:28:36.401Z,13.99
2019-03-21T09:29:36.425Z,14.03
2019-03-21T09:30:36.449Z,14.07
2019-03-21T09:31:36.461Z,13.97
2019-03-21T09:32:36.483Z,13.89
2019-03-21T09:33:36.499Z,13.97
2019-03-21T09:34:36.523Z,14.05
2019-03-21T09:35:36.541Z,14.14
2019-03-21T09:36:36.559Z,14.17
2019-03-21T09:37:36.579Z,14.26
2019-03-21T09:38:37.048Z,14.26
2019-03-21T09:39:36.617Z,14.33
2019-03-21T09:40:36.641Z,14.30
2019-03-21T09:41:36.660Z,14.45
2019-03-21T09:42:36.679Z,14.47
2019-03-21T09:43:36.708Z,14.45
2019-03-21T09:44:36.719Z,14.53
2019-03-21T09:45:36.741Z,14.51
2019-03-21T09:46:36.757Z,14.63
2019-03-21T09:47:36.776Z,14.65
2019-03-21T09:48:36.797Z,14.69
2019-03-21T09:49:36.816Z,14.69
2019-03-21T09:50:36.835Z,14.84
2019-03-21T09:51:36.860Z,14.79
2019-03-21T09:52:36.883Z,14.79
2019-03-21T09:53:36.898Z,14.77
2019-03-21T09:54:36.923Z,14.72
2019-03-21T09:55:36.939Z,14.72
2019-03-21T09:56:36.961Z,14.73
2019-03-21T09:57:36.987Z,14.86
2019-03-21T09:58:36.998Z,14.78
2019-03-21T09:59:37.026Z,14.73
2019-03-21T10:00:37.038Z,14.62
2019-03-21T10:01:37.056Z,14.51
2019-03-21T10:02:37.080Z,14.65
2019-03-21T10:03:37.097Z,14.62
2019-03-21T10:04:37.119Z,14.66
2019-03-21T10:05:37.198Z,14.53
2019-03-21T10:06:37.158Z,14.44
2019-03-21T10:07:37.177Z,14.40
2019-03-21T10:08:37.198Z,14.43
2019-03-21T10:09:37.219Z,14.30
2019-03-21T10:10:37.240Z,14.36
2019-03-21T10:11:37.257Z,14.35
2019-03-21T10:12:37.286Z,14.51
2019-03-21T10:13:37.319Z,14.48
2019-03-21T10:14:37.425Z,14.50
2019-03-21T10:15:37.338Z,14.47
2019-03-21T10:16:37.359Z,14.51
2019-03-21T10:17:37.384Z,14.50
2019-03-21T10:18:37.401Z,14.62
2019-03-21T10:19:37.423Z,14.59
2019-03-21T10:20:37.442Z,14.70
2019-03-21T10:21:43.295Z,14.69
2019-03-21T10:22:37.478Z,14.84
2019-03-21T10:23:37.497Z,14.72
2019-03-21T10:24:37.533Z,14.72
2019-03-21T10:25:37.543Z,14.78
2019-03-21T10:26:37.559Z,14.79
2019-03-21T10:27:37.575Z,14.94
2019-03-21T10:28:37.596Z,15.06
2019-03-21T10:29:37.618Z,15.14
2019-03-21T10:30:37.642Z,15.02
2019-03-21T10:31:37.657Z,15.03
2019-03-21T10:32:37.678Z,15.02
2019-03-21T10:33:37.699Z,14.99
2019-03-21T10:34:37.717Z,14.97
2019-03-21T10:35:37.738Z,15.14
2019-03-21T10:36:37.766Z,15.06
2019-03-21T10:37:37.779Z,15.03
2019-03-21T10:38:37.800Z,15.11
2019-03-21T10:39:37.819Z,15.02
2019-03-21T10:40:37.860Z,15.14
2019-03-21T10:41:37.866Z,15.18
2019-03-21T10:42:37.881Z,15.02
2019-03-21T10:43:37.910Z,15.03
2019-03-21T10:44:37.920Z,14.94
2019-03-21T10:45:38.043Z,14.86
2019-03-21T10:46:37.963Z,15.02
2019-03-21T10:47:37.983Z,15.04
2019-03-21T10:48:38.604Z,15.27
2019-03-21T10:49:38.019Z,15.43
2019-03-21T10:50:38.040Z,15.51
2019-03-21T10:51:38.065Z,15.49
2019-03-21T10:52:38.086Z,15.55
2019-03-21T10:53:38.102Z,15.49
2019-03-21T10:54:38.127Z,15.47
2019-03-21T10:55:38.141Z,15.55
2019-03-21T10:56:38.162Z,15.54
2019-03-21T10:57:38.183Z,15.68
2019-03-21T10:58:38.203Z,15.65
2019-03-21T10:59:38.223Z,15.70
2019-03-21T11:00:38.244Z,15.75
2019-03-21T11:01:38.263Z,15.70
2019-03-21T11:02:38.286Z,15.77
2019-03-21T11:03:38.305Z,15.72
2019-03-21T11:04:38.328Z,15.55
2019-03-21T11:05:38.351Z,15.27
2019-03-21T11:06:38.389Z,15.19
2019-03-21T11:07:38.387Z,15.18
2019-03-21T11:08:38.409Z,15.19
2019-03-21T11:09:38.678Z,15.46
2019-03-21T11:10:38.449Z,15.49
2019-03-21T11:11:38.474Z,15.35
2019-03-21T11:12:38.487Z,15.28
2019-03-21T11:13:38.540Z,15.39
2019-03-21T11:14:38.537Z,15.51
2019-03-21T11:15:38.554Z,15.64
2019-03-21T11:16:38.574Z,15.64
2019-03-21T11:17:38.600Z,15.77
2019-03-21T11:18:38.611Z,15.86
2019-03-21T11:19:38.635Z,15.94
2019-03-21T11:20:38.653Z,15.86
2019-03-21T11:21:38.674Z,15.95
2019-03-21T11:22:38.698Z,16.01
2019-03-21T11:23:38.717Z,15.67
2019-03-21T11:24:39.639Z,15.44
2019-03-21T11:25:38.763Z,15.29
2019-03-21T11:26:38.782Z,15.40
2019-03-21T11:27:38.799Z,15.51
2019-03-21T11:28:38.818Z,15.51
2019-03-21T11:29:38.847Z,15.40
2019-03-21T11:30:38.860Z,15.42
2019-03-21T11:31:38.885Z,15.35
2019-03-21T11:32:38.904Z,15.22
2019-03-21T11:33:38.921Z,15.25
2019-03-21T11:34:38.942Z,15.29
2019-03-21T11:35:38.964Z,15.47
2019-03-21T11:36:39.043Z,15.47
2019-03-21T11:37:39.013Z,15.52
2019-03-21T11:38:39.027Z,15.61
2019-03-21T11:39:39.053Z,15.80
2019-03-21T11:40:39.069Z,15.95
2019-03-21T11:41:39.088Z,16.00
2019-03-21T11:42:39.119Z,15.98
2019-03-21T11:43:39.140Z,15.91
2019-03-21T11:44:39.156Z,16.01
2019-03-21T11:45:39.169Z,16.13
2019-03-21T11:46:39.203Z,16.05
2019-03-21T11:47:42.001Z,15.98
2019-03-21T11:48:39.231Z,15.77
2019-03-21T11:49:39.255Z,15.70
2019-03-21T11:50:39.296Z,15.68
2019-03-21T11:51:39.302Z,15.65
2019-03-21T11:52:41.097Z,15.77
2019-03-21T11:53:39.333Z,15.79
2019-03-21T11:54:39.383Z,15.80
2019-03-21T11:55:39.382Z,15.94
2019-03-21T11:56:39.400Z,15.88
2019-03-21T11:57:39.419Z,15.82
2019-03-21T11:58:39.442Z,15.94
2019-03-21T11:59:51.174Z,15.84
2019-03-21T12:00:44.013Z,15.90
2019-03-21T12:01:39.501Z,15.70
2019-03-21T12:02:39.519Z,15.83
2019-03-21T12:03:39.543Z,15.83
2019-03-21T12:04:39.562Z,15.68
2019-03-21T12:05:39.583Z,15.64
2019-03-21T12:06:39.603Z,15.65
2019-03-21T12:07:39.623Z,15.76
2019-03-21T12:08:39.646Z,15.77
2019-03-21T12:09:40.013Z,15.86
2019-03-21T12:10:39.683Z,15.98
2019-03-21T12:11:39.703Z,15.98
2019-03-21T12:12:39.732Z,15.91
2019-03-21T12:13:39.744Z,15.94
2019-03-21T12:14:39.763Z,15.88
2019-03-21T12:15:39.786Z,15.97
2019-03-21T12:16:39.814Z,16.01
2019-03-21T12:17:39.829Z,16.10
2019-03-21T12:18:39.846Z,16.15
2019-03-21T12:19:39.866Z,16.16
2019-03-21T12:20:39.892Z,16.24
2019-03-21T12:21:39.910Z,16.33
2019-03-21T12:22:39.939Z,16.32
2019-03-21T12:23:39.948Z,16.38
2019-03-21T12:24:39.971Z,16.09
2019-03-21T12:25:39.990Z,16.00
2019-03-21T12:26:40.010Z,16.10
2019-03-21T12:27:40.032Z,16.16
2019-03-21T12:28:40.060Z,15.97
2019-03-21T12:29:40.078Z,16.23
2019-03-21T12:30:40.099Z,16.10
2019-03-21T12:31:40.115Z,16.20
2019-03-21T12:32:40.136Z,16.21
2019-03-21T12:33:40.156Z,16.38
2019-03-21T12:34:40.182Z,16.49
2019-03-21T12:35:40.205Z,16.53
2019-03-21T12:36:40.219Z,16.33
2019-03-21T12:37:40.240Z,16.29
2019-03-21T12:38:40.259Z,16.10
2019-03-21T12:39:40.283Z,15.98
2019-03-21T12:40:40.299Z,16.12
2019-03-21T12:41:40.332Z,16.26
2019-03-21T12:42:40.352Z,16.31
2019-03-21T12:43:40.363Z,16.41
2019-03-21T12:44:40.389Z,16.50
2019-03-21T12:45:40.404Z,16.60
2019-03-21T12:46:40.426Z,16.49
2019-03-21T12:47:40.444Z,16.33
2019-03-21T12:48:40.465Z,16.28
2019-03-21T12:49:40.490Z,16.31
2019-03-21T12:50:40.510Z,16.32
2019-03-21T12:51:40.529Z,16.49
2019-03-21T12:52:41.596Z,16.47